sensor_id;sensor_type;location;lat;lon;timestamp;P1;durP1;ratioP1;P2;durP2;ratioP2
28774;SDS011;15926;51.348;6.596;2023-07-20T04:05:15;13.02;;;8.75;;
28774;SDS011;15926;51.348;6.596;2023-07-20T04:07:41;12.73;;;8.77;;
28774;SDS011;15926;51.348;6.596;2023-07-20T04:10:07;13.73;;;9.32;;
28774;SDS011;15926;51.348;6.596;2023-07-20T04:12:33;12.88;;;8.85;;
28774;SDS011;15926;51.348;6.596;2023-07-20T04:14:59;13.13;;;8.52;;
28774;SDS011;15926;51.348;6.596;2023-07-20T04:17:25;14.10;;;8.30;;
28774;SDS011;15926;51.348;6.596;2023-07-20T04:19:51;17.70;;;8.82;;
28774;SDS011;15926;51.348;6.596;2023-07-20T04:22:17;15.40;;;8.80;;
28774;SDS011;15926;51.348;6.596;2023-07-20T04:24:43;14.50;;;9.82;;
28774;SDS011;15926;51.348;6.596;2023-07-20T04:27:09;13.02;;;9.48;;
28774;SDS011;15926;51.348;6.596;2023-07-20T04:29:35;17.67;;;9.93;;
28774;SDS011;15926;51.348;6.596;2023-07-20T04:32:01;17.13;;;9.93;;
28774;SDS011;15926;51.348;6.596;2023-07-20T04:34:27;15.90;;;10.13;;
28774;SDS011;15926;51.348;6.596;2023-07-20T04:36:53;15.43;;;9.00;;
28774;SDS011;15926;51.348;6.596;2023-07-20T04:39:19;17.88;;;11.57;;
28774;SDS011;15926;51.348;6.596;2023-07-20T04:41:45;18.33;;;11.38;;
28774;SDS011;15926;51.348;6.596;2023-07-20T04:44:12;20.75;;;11.40;;
28774;SDS011;15926;51.348;6.596;2023-07-20T04:46:39;14.43;;;10.98;;
28774;SDS011;15926;51.348;6.596;2023-07-20T04:49:05;21.00;;;12.65;;
28774;SDS011;15926;51.348;6.596;2023-07-20T04:51:31;21.48;;;12.48;;
28774;SDS011;15926;51.348;6.596;2023-07-20T04:53:57;15.77;;;11.85;;
28774;SDS011;15926;51.348;6.596;2023-07-20T04:56:24;16.85;;;11.65;;
28774;SDS011;15926;51.348;6.596;2023-07-20T04:58:50;18.10;;;12.93;;
28774;SDS011;15926;51.348;6.596;2023-07-20T05:01:16;17.10;;;12.50;;
28774;SDS011;15926;51.348;6.596;2023-07-20T05:03:42;16.48;;;12.00;;
28774;SDS011;15926;51.348;6.596;2023-07-20T05:06:08;19.23;;;12.65;;
28774;SDS011;15926;51.348;6.596;2023-07-20T05:08:34;19.67;;;12.98;;
28774;SDS011;15926;51.348;6.596;2023-07-20T05:11:00;18.17;;;12.75;;
28774;SDS011;15926;51.348;6.596;2023-07-20T05:13:26;15.77;;;12.43;;
28774;SDS011;15926;51.348;6.596;2023-07-20T05:15:52;16.02;;;11.80;;
28774;SDS011;15926;51.348;6.596;2023-07-20T05:18:18;18.35;;;13.35;;
28774;SDS011;15926;51.348;6.596;2023-07-20T05:20:46;19.27;;;13.38;;
28774;SDS011;15926;51.348;6.596;2023-07-20T05:23:12;18.40;;;13.32;;
28774;SDS011;15926;51.348;6.596;2023-07-20T05:25:38;14.88;;;12.80;;
28774;SDS011;15926;51.348;6.596;2023-07-20T05:28:04;16.55;;;12.02;;
28774;SDS011;15926;51.348;6.596;2023-07-20T05:30:31;14.95;;;11.48;;
28774;SDS011;15926;51.348;6.596;2023-07-20T05:32:57;13.55;;;12.05;;
28774;SDS011;15926;51.348;6.596;2023-07-20T05:35:23;14.18;;;11.30;;
28774;SDS011;15926;51.348;6.596;2023-07-20T05:37:49;12.32;;;10.50;;
28774;SDS011;15926;51.348;6.596;2023-07-20T05:40:15;12.55;;;11.27;;
28774;SDS011;15926;51.348;6.596;2023-07-20T05:42:44;15.57;;;11.27;;
28774;SDS011;15926;51.348;6.596;2023-07-20T05:45:11;13.23;;;11.00;;
28774;SDS011;15926;51.348;6.596;2023-07-20T05:47:36;10.70;;;9.60;;
28774;SDS011;15926;51.348;6.596;2023-07-20T05:50:02;12.05;;;9.23;;
28774;SDS011;15926;51.348;6.596;2023-07-20T05:52:29;10.65;;;8.55;;
28774;SDS011;15926;51.348;6.596;2023-07-20T05:54:55;9.15;;;8.35;;
28774;SDS011;15926;51.348;6.596;2023-07-20T05:57:21;10.32;;;9.05;;
28774;SDS011;15926;51.348;6.596;2023-07-20T05:59:47;9.43;;;8.07;;
28774;SDS011;15926;51.348;6.596;2023-07-20T06:02:13;8.68;;;7.53;;
28774;SDS011;15926;51.348;6.596;2023-07-20T06:04:39;7.28;;;6.57;;
28774;SDS011;15926;51.348;6.596;2023-07-20T06:07:05;6.57;;;5.97;;
28774;SDS011;15926;51.348;6.596;2023-07-20T06:09:33;7.57;;;6.38;;
28774;SDS011;15926;51.348;6.596;2023-07-20T06:11:59;5.55;;;5.10;;
28774;SDS011;15926;51.348;6.596;2023-07-20T06:14:25;7.60;;;5.28;;
28774;SDS011;15926;51.348;6.596;2023-07-20T06:16:51;5.13;;;4.68;;
28774;SDS011;15926;51.348;6.596;2023-07-20T06:19:17;5.93;;;5.35;;
28774;SDS011;15926;51.348;6.596;2023-07-20T06:21:43;4.82;;;4.40;;
28774;SDS011;15926;51.348;6.596;2023-07-20T06:24:09;4.82;;;4.40;;
28774;SDS011;15926;51.348;6.596;2023-07-20T06:26:35;4.38;;;3.92;;
28774;SDS011;15926;51.348;6.596;2023-07-20T06:29:04;4.15;;;3.80;;
28774;SDS011;15926;51.348;6.596;2023-07-20T06:31:31;27.98;;;5.22;;
28774;SDS011;15926;51.348;6.596;2023-07-20T06:33:57;7.55;;;4.47;;
28774;SDS011;15926;51.348;6.596;2023-07-20T06:36:23;9.43;;;4.28;;
28774;SDS011;15926;51.348;6.596;2023-07-20T06:38:51;9.13;;;4.78;;
28774;SDS011;15926;51.348;6.596;2023-07-20T06:41:17;3.88;;;3.58;;
28774;SDS011;15926;51.348;6.596;2023-07-20T06:43:43;4.22;;;3.25;;
28774;SDS011;15926;51.348;6.596;2023-07-20T06:46:09;4.95;;;3.25;;
28774;SDS011;15926;51.348;6.596;2023-07-20T06:48:35;5.65;;;2.90;;
28774;SDS011;15926;51.348;6.596;2023-07-20T06:51:01;4.40;;;3.30;;
28774;SDS011;15926;51.348;6.596;2023-07-20T06:53:27;3.35;;;3.03;;
28774;SDS011;15926;51.348;6.596;2023-07-20T06:55:53;3.42;;;2.80;;
28774;SDS011;15926;51.348;6.596;2023-07-20T06:58:22;2.88;;;2.42;;
28774;SDS011;15926;51.348;6.596;2023-07-20T07:00:48;2.90;;;2.60;;
28774;SDS011;15926;51.348;6.596;2023-07-20T07:03:14;3.10;;;1.95;;
28774;SDS011;15926;51.348;6.596;2023-07-20T07:05:40;3.78;;;2.17;;
28774;SDS011;15926;51.348;6.596;2023-07-20T07:08:06;2.80;;;2.00;;
28774;SDS011;15926;51.348;6.596;2023-07-20T07:10:32;6.55;;;2.10;;
28774;SDS011;15926;51.348;6.596;2023-07-20T07:12:58;2.80;;;2.13;;
28774;SDS011;15926;51.348;6.596;2023-07-20T07:15:26;2.50;;;1.92;;
28774;SDS011;15926;51.348;6.596;2023-07-20T07:17:52;2.30;;;2.10;;
28774;SDS011;15926;51.348;6.596;2023-07-20T07:20:18;2.38;;;2.17;;
28774;SDS011;15926;51.348;6.596;2023-07-20T07:22:44;6.53;;;2.97;;
28774;SDS011;15926;51.348;6.596;2023-07-20T07:25:11;4.80;;;2.40;;
28774;SDS011;15926;51.348;6.596;2023-07-20T07:27:37;1.88;;;1.77;;
28774;SDS011;15926;51.348;6.596;2023-07-20T07:30:03;1.77;;;1.60;;
28774;SDS011;15926;51.348;6.596;2023-07-20T07:32:30;1.50;;;1.40;;
28774;SDS011;15926;51.348;6.596;2023-07-20T07:34:56;1.50;;;1.30;;
28774;SDS011;15926;51.348;6.596;2023-07-20T07:37:23;1.48;;;1.20;;
28774;SDS011;15926;51.348;6.596;2023-07-20T07:39:49;1.75;;;1.65;;
28774;SDS011;15926;51.348;6.596;2023-07-20T07:42:15;2.15;;;1.95;;
28774;SDS011;15926;51.348;6.596;2023-07-20T07:44:41;2.83;;;1.67;;
28774;SDS011;15926;51.348;6.596;2023-07-20T07:47:07;1.23;;;1.15;;
28774;SDS011;15926;51.348;6.596;2023-07-20T07:49:33;1.65;;;1.40;;
28774;SDS011;15926;51.348;6.596;2023-07-20T07:51:59;0.80;;;0.80;;
28774;SDS011;15926;51.348;6.596;2023-07-20T07:54:27;0.80;;;0.80;;
28774;SDS011;15926;51.348;6.596;2023-07-20T07:56:53;4.53;;;1.00;;
28774;SDS011;15926;51.348;6.596;2023-07-20T07:59:19;1.52;;;0.80;;
28774;SDS011;15926;51.348;6.596;2023-07-20T08:01:45;2.90;;;0.82;;
28774;SDS011;15926;51.348;6.596;2023-07-20T08:04:11;0.50;;;0.50;;
28774;SDS011;15926;51.348;6.596;2023-07-20T08:06:38;0.40;;;0.40;;
28774;SDS011;15926;51.348;6.596;2023-07-20T08:09:04;1.73;;;0.63;;
28774;SDS011;15926;51.348;6.596;2023-07-20T08:11:30;0.80;;;0.80;;
28774;SDS011;15926;51.348;6.596;2023-07-20T08:13:59;1.03;;;0.70;;
28774;SDS011;15926;51.348;6.596;2023-07-20T08:16:25;0.90;;;0.77;;
28774;SDS011;15926;51.348;6.596;2023-07-20T08:18:51;2.67;;;0.70;;
28774;SDS011;15926;51.348;6.596;2023-07-20T08:21:17;0.50;;;0.50;;
28774;SDS011;15926;51.348;6.596;2023-07-20T08:23:43;1.00;;;0.70;;
28774;SDS011;15926;51.348;6.596;2023-07-20T08:26:09;2.30;;;0.80;;
28774;SDS011;15926;51.348;6.596;2023-07-20T08:28:35;2.65;;;0.50;;
28774;SDS011;15926;51.348;6.596;2023-07-20T08:31:02;1.77;;;0.60;;
28774;SDS011;15926;51.348;6.596;2023-07-20T08:33:28;0.77;;;0.47;;
28774;SDS011;15926;51.348;6.596;2023-07-20T08:35:58;2.35;;;0.63;;
28774;SDS011;15926;51.348;6.596;2023-07-20T08:38:24;2.28;;;0.50;;
28774;SDS011;15926;51.348;6.596;2023-07-20T08:40:51;0.57;;;0.50;;
28774;SDS011;15926;51.348;6.596;2023-07-20T08:45:45;2.80;;;0.70;;
28774;SDS011;15926;51.348;6.596;2023-07-20T08:48:12;3.22;;;0.60;;
28774;SDS011;15926;51.348;6.596;2023-07-20T08:50:39;1.10;;;0.70;;
28774;SDS011;15926;51.348;6.596;2023-07-20T08:53:05;0.40;;;0.40;;
28774;SDS011;15926;51.348;6.596;2023-07-20T08:55:32;3.88;;;0.50;;
28774;SDS011;15926;51.348;6.596;2023-07-20T08:57:59;0.28;;;0.25;;
28774;SDS011;15926;51.348;6.596;2023-07-20T09:00:26;0.65;;;0.40;;
28774;SDS011;15926;51.348;6.596;2023-07-20T09:02:54;0.47;;;0.40;;
28774;SDS011;15926;51.348;6.596;2023-07-20T09:05:21;0.40;;;0.40;;
28774;SDS011;15926;51.348;6.596;2023-07-20T09:07:48;0.30;;;0.30;;
28774;SDS011;15926;51.348;6.596;2023-07-20T09:10:14;0.52;;;0.50;;
28774;SDS011;15926;51.348;6.596;2023-07-20T09:12:41;0.73;;;0.40;;
28774;SDS011;15926;51.348;6.596;2023-07-20T09:15:07;0.40;;;0.30;;
28774;SDS011;15926;51.348;6.596;2023-07-20T09:17:34;0.40;;;0.40;;
28774;SDS011;15926;51.348;6.596;2023-07-20T09:20:04;0.50;;;0.50;;
28774;SDS011;15926;51.348;6.596;2023-07-20T09:22:33;1.52;;;0.60;;
28774;SDS011;15926;51.348;6.596;2023-07-20T09:24:59;1.65;;;0.40;;
28774;SDS011;15926;51.348;6.596;2023-07-20T09:27:35;0.63;;;0.47;;
28774;SDS011;15926;51.348;6.596;2023-07-20T09:30:02;0.70;;;0.50;;
28774;SDS011;15926;51.348;6.596;2023-07-20T09:32:28;0.52;;;0.40;;
28774;SDS011;15926;51.348;6.596;2023-07-20T09:34:54;0.50;;;0.32;;
28774;SDS011;15926;51.348;6.596;2023-07-20T09:37:23;0.75;;;0.40;;
28774;SDS011;15926;51.348;6.596;2023-07-20T09:39:51;1.20;;;0.60;;
28774;SDS011;15926;51.348;6.596;2023-07-20T09:42:18;0.60;;;0.57;;
28774;SDS011;15926;51.348;6.596;2023-07-20T09:44:44;0.98;;;0.50;;
28774;SDS011;15926;51.348;6.596;2023-07-20T09:47:10;0.40;;;0.40;;
28774;SDS011;15926;51.348;6.596;2023-07-20T09:49:40;0.52;;;0.40;;
28774;SDS011;15926;51.348;6.596;2023-07-20T09:52:07;0.88;;;0.40;;
28774;SDS011;15926;51.348;6.596;2023-07-20T09:54:35;2.53;;;0.50;;
28774;SDS011;15926;51.348;6.596;2023-07-20T09:57:01;0.93;;;0.50;;
28774;SDS011;15926;51.348;6.596;2023-07-20T09:59:27;2.25;;;0.38;;
28774;SDS011;15926;51.348;6.596;2023-07-20T10:01:53;0.30;;;0.30;;
28774;SDS011;15926;51.348;6.596;2023-07-20T10:04:22;0.63;;;0.33;;
28774;SDS011;15926;51.348;6.596;2023-07-20T10:06:48;1.40;;;0.50;;
28774;SDS011;15926;51.348;6.596;2023-07-20T10:09:17;0.40;;;0.40;;
28774;SDS011;15926;51.348;6.596;2023-07-20T10:11:45;0.60;;;0.50;;
28774;SDS011;15926;51.348;6.596;2023-07-20T10:14:13;0.30;;;0.30;;
28774;SDS011;15926;51.348;6.596;2023-07-20T10:16:43;0.40;;;0.40;;
28774;SDS011;15926;51.348;6.596;2023-07-20T10:19:17;0.30;;;0.30;;
28774;SDS011;15926;51.348;6.596;2023-07-20T10:21:49;1.58;;;0.50;;
28774;SDS011;15926;51.348;6.596;2023-07-20T10:24:17;0.35;;;0.35;;
28774;SDS011;15926;51.348;6.596;2023-07-20T10:26:44;0.47;;;0.47;;
28774;SDS011;15926;51.348;6.596;2023-07-20T10:29:10;1.65;;;0.60;;
28774;SDS011;15926;51.348;6.596;2023-07-20T10:31:37;0.52;;;0.52;;
28774;SDS011;15926;51.348;6.596;2023-07-20T10:34:04;1.05;;;0.50;;
28774;SDS011;15926;51.348;6.596;2023-07-20T10:36:30;1.45;;;0.40;;
28774;SDS011;15926;51.348;6.596;2023-07-20T10:38:56;0.73;;;0.40;;
28774;SDS011;15926;51.348;6.596;2023-07-20T10:43:50;1.38;;;0.30;;
28774;SDS011;15926;51.348;6.596;2023-07-20T10:46:33;0.68;;;0.50;;
28774;SDS011;15926;51.348;6.596;2023-07-20T10:49:02;0.60;;;0.60;;
28774;SDS011;15926;51.348;6.596;2023-07-20T10:51:29;0.50;;;0.50;;
28774;SDS011;15926;51.348;6.596;2023-07-20T10:53:58;0.30;;;0.30;;
28774;SDS011;15926;51.348;6.596;2023-07-20T10:56:27;0.40;;;0.30;;
28774;SDS011;15926;51.348;6.596;2023-07-20T10:58:58;0.80;;;0.40;;
28774;SDS011;15926;51.348;6.596;2023-07-20T11:01:27;0.57;;;0.50;;
28774;SDS011;15926;51.348;6.596;2023-07-20T11:03:56;0.95;;;0.50;;
28774;SDS011;15926;51.348;6.596;2023-07-20T11:08:50;1.02;;;0.65;;
28774;SDS011;15926;51.348;6.596;2023-07-20T11:11:20;2.38;;;1.00;;
28774;SDS011;15926;51.348;6.596;2023-07-20T11:13:53;0.90;;;0.60;;
28774;SDS011;15926;51.348;6.596;2023-07-20T11:16:21;1.08;;;0.60;;
28774;SDS011;15926;51.348;6.596;2023-07-20T11:18:57;0.93;;;0.93;;
28774;SDS011;15926;51.348;6.596;2023-07-20T11:21:23;0.75;;;0.75;;
28774;SDS011;15926;51.348;6.596;2023-07-20T11:23:49;1.95;;;1.05;;
28774;SDS011;15926;51.348;6.596;2023-07-20T11:26:16;2.63;;;0.80;;
28774;SDS011;15926;51.348;6.596;2023-07-20T11:28:47;0.40;;;0.40;;
28774;SDS011;15926;51.348;6.596;2023-07-20T11:31:14;0.40;;;0.40;;
28774;SDS011;15926;51.348;6.596;2023-07-20T11:33:43;0.35;;;0.35;;
28774;SDS011;15926;51.348;6.596;2023-07-20T11:36:09;0.73;;;0.50;;
28774;SDS011;15926;51.348;6.596;2023-07-20T11:38:35;1.08;;;0.50;;
28774;SDS011;15926;51.348;6.596;2023-07-20T11:41:05;0.70;;;0.70;;
28774;SDS011;15926;51.348;6.596;2023-07-20T11:43:32;0.30;;;0.30;;
28774;SDS011;15926;51.348;6.596;2023-07-20T11:45:59;1.58;;;0.50;;
28774;SDS011;15926;51.348;6.596;2023-07-20T11:48:25;0.50;;;0.50;;
28774;SDS011;15926;51.348;6.596;2023-07-20T11:50:51;0.47;;;0.40;;
28774;SDS011;15926;51.348;6.596;2023-07-20T11:53:17;1.52;;;0.30;;
28774;SDS011;15926;51.348;6.596;2023-07-20T11:55:44;0.40;;;0.40;;
28774;SDS011;15926;51.348;6.596;2023-07-20T11:58:11;1.15;;;0.40;;
28774;SDS011;15926;51.348;6.596;2023-07-20T12:00:38;3.00;;;0.50;;
28774;SDS011;15926;51.348;6.596;2023-07-20T12:03:07;0.98;;;0.40;;
28774;SDS011;15926;51.348;6.596;2023-07-20T12:05:33;0.57;;;0.40;;
28774;SDS011;15926;51.348;6.596;2023-07-20T12:07:59;0.40;;;0.40;;
28774;SDS011;15926;51.348;6.596;2023-07-20T12:10:26;0.93;;;0.40;;
28774;SDS011;15926;51.348;6.596;2023-07-20T12:12:53;1.65;;;0.40;;
28774;SDS011;15926;51.348;6.596;2023-07-20T12:15:20;1.17;;;0.50;;
28774;SDS011;15926;51.348;6.596;2023-07-20T12:17:51;0.40;;;0.40;;
28774;SDS011;15926;51.348;6.596;2023-07-20T12:22:52;0.50;;;0.50;;
28774;SDS011;15926;51.348;6.596;2023-07-20T12:25:19;0.50;;;0.40;;
28774;SDS011;15926;51.348;6.596;2023-07-20T12:27:45;0.30;;;0.30;;
28774;SDS011;15926;51.348;6.596;2023-07-20T12:30:12;1.88;;;0.50;;
28774;SDS011;15926;51.348;6.596;2023-07-20T12:32:38;0.40;;;0.40;;
28774;SDS011;15926;51.348;6.596;2023-07-20T12:35:05;0.30;;;0.30;;
28774;SDS011;15926;51.348;6.596;2023-07-20T12:37:31;0.30;;;0.30;;
28774;SDS011;15926;51.348;6.596;2023-07-20T12:39:57;0.35;;;0.35;;
28774;SDS011;15926;51.348;6.596;2023-07-20T12:42:23;0.45;;;0.30;;
28774;SDS011;15926;51.348;6.596;2023-07-20T12:44:49;0.88;;;0.50;;
28774;SDS011;15926;51.348;6.596;2023-07-20T12:47:16;1.55;;;0.40;;
28774;SDS011;15926;51.348;6.596;2023-07-20T12:49:42;0.47;;;0.47;;
28774;SDS011;15926;51.348;6.596;2023-07-20T12:52:11;0.65;;;0.65;;
28774;SDS011;15926;51.348;6.596;2023-07-20T12:54:38;0.40;;;0.40;;
28774;SDS011;15926;51.348;6.596;2023-07-20T12:57:04;2.58;;;0.60;;
28774;SDS011;15926;51.348;6.596;2023-07-20T12:59:30;0.47;;;0.38;;
28774;SDS011;15926;51.348;6.596;2023-07-20T13:01:56;0.40;;;0.40;;
28774;SDS011;15926;51.348;6.596;2023-07-20T13:04:22;0.40;;;0.40;;
28774;SDS011;15926;51.348;6.596;2023-07-20T13:06:48;1.35;;;0.40;;
28774;SDS011;15926;51.348;6.596;2023-07-20T13:09:14;1.05;;;0.43;;
28774;SDS011;15926;51.348;6.596;2023-07-20T13:11:40;0.77;;;0.50;;
28774;SDS011;15926;51.348;6.596;2023-07-20T13:14:06;0.70;;;0.40;;
28774;SDS011;15926;51.348;6.596;2023-07-20T13:16:32;0.50;;;0.50;;
28774;SDS011;15926;51.348;6.596;2023-07-20T13:18:59;0.50;;;0.50;;
28774;SDS011;15926;51.348;6.596;2023-07-20T13:21:25;0.30;;;0.30;;
28774;SDS011;15926;51.348;6.596;2023-07-20T13:23:51;0.50;;;0.50;;
28774;SDS011;15926;51.348;6.596;2023-07-20T13:26:17;0.68;;;0.47;;
28774;SDS011;15926;51.348;6.596;2023-07-20T13:28:43;1.25;;;0.65;;
28774;SDS011;15926;51.348;6.596;2023-07-20T13:31:09;0.65;;;0.43;;
28774;SDS011;15926;51.348;6.596;2023-07-20T13:33:36;0.63;;;0.40;;
28774;SDS011;15926;51.348;6.596;2023-07-20T13:36:02;0.82;;;0.50;;
28774;SDS011;15926;51.348;6.596;2023-07-20T13:38:30;0.50;;;0.50;;
28774;SDS011;15926;51.348;6.596;2023-07-20T13:40:57;2.67;;;0.43;;
28774;SDS011;15926;51.348;6.596;2023-07-20T13:43:23;0.60;;;0.60;;
28774;SDS011;15926;51.348;6.596;2023-07-20T13:45:49;0.60;;;0.40;;
28774;SDS011;15926;51.348;6.596;2023-07-20T13:48:15;1.35;;;0.60;;
28774;SDS011;15926;51.348;6.596;2023-07-20T13:50:44;0.60;;;0.60;;
28774;SDS011;15926;51.348;6.596;2023-07-20T13:53:11;0.57;;;0.57;;
28774;SDS011;15926;51.348;6.596;2023-07-20T13:55:38;0.70;;;0.43;;
28774;SDS011;15926;51.348;6.596;2023-07-20T13:58:04;0.80;;;0.40;;
28774;SDS011;15926;51.348;6.596;2023-07-20T14:00:30;1.27;;;0.60;;
28774;SDS011;15926;51.348;6.596;2023-07-20T14:02:58;0.50;;;0.50;;
28774;SDS011;15926;51.348;6.596;2023-07-20T14:05:24;0.35;;;0.35;;
28774;SDS011;15926;51.348;6.596;2023-07-20T14:07:50;0.60;;;0.60;;
28774;SDS011;15926;51.348;6.596;2023-07-20T14:10:17;0.63;;;0.50;;
28774;SDS011;15926;51.348;6.596;2023-07-20T14:12:43;0.47;;;0.47;;
28774;SDS011;15926;51.348;6.596;2023-07-20T14:15:10;0.55;;;0.55;;
28774;SDS011;15926;51.348;6.596;2023-07-20T14:17:36;1.15;;;0.70;;
28774;SDS011;15926;51.348;6.596;2023-07-20T14:20:02;1.25;;;0.80;;
28774;SDS011;15926;51.348;6.596;2023-07-20T14:22:31;0.95;;;0.57;;
28774;SDS011;15926;51.348;6.596;2023-07-20T14:24:57;0.47;;;0.47;;
28774;SDS011;15926;51.348;6.596;2023-07-20T14:27:23;0.55;;;0.50;;
28774;SDS011;15926;51.348;6.596;2023-07-20T14:29:49;0.50;;;0.50;;
28774;SDS011;15926;51.348;6.596;2023-07-20T14:32:15;0.55;;;0.52;;
28774;SDS011;15926;51.348;6.596;2023-07-20T14:34:41;0.90;;;0.73;;
28774;SDS011;15926;51.348;6.596;2023-07-20T14:37:08;0.68;;;0.55;;
28774;SDS011;15926;51.348;6.596;2023-07-20T14:39:34;0.60;;;0.60;;
28774;SDS011;15926;51.348;6.596;2023-07-20T14:42:00;1.40;;;0.70;;
28774;SDS011;15926;51.348;6.596;2023-07-20T14:44:27;0.60;;;0.60;;
28774;SDS011;15926;51.348;6.596;2023-07-20T14:46:53;0.38;;;0.38;;
28774;SDS011;15926;51.348;6.596;2023-07-20T14:49:19;2.22;;;0.47;;
28774;SDS011;15926;51.348;6.596;2023-07-20T14:51:45;0.77;;;0.60;;
28774;SDS011;15926;51.348;6.596;2023-07-20T14:54:12;0.88;;;0.60;;
28774;SDS011;15926;51.348;6.596;2023-07-20T14:56:38;2.42;;;0.60;;
28774;SDS011;15926;51.348;6.596;2023-07-20T14:59:09;1.90;;;0.45;;
28774;SDS011;15926;51.348;6.596;2023-07-20T15:01:35;2.50;;;0.50;;
28774;SDS011;15926;51.348;6.596;2023-07-20T15:04:01;0.82;;;0.50;;
28774;SDS011;15926;51.348;6.596;2023-07-20T15:06:27;0.60;;;0.45;;
28774;SDS011;15926;51.348;6.596;2023-07-20T15:08:55;0.57;;;0.57;;
28774;SDS011;15926;51.348;6.596;2023-07-20T15:11:21;0.98;;;0.80;;
28774;SDS011;15926;51.348;6.596;2023-07-20T15:13:47;0.95;;;0.50;;
28774;SDS011;15926;51.348;6.596;2023-07-20T15:16:13;1.67;;;0.70;;
28774;SDS011;15926;51.348;6.596;2023-07-20T15:18:39;0.95;;;0.60;;
28774;SDS011;15926;51.348;6.596;2023-07-20T15:21:05;1.35;;;0.80;;
28774;SDS011;15926;51.348;6.596;2023-07-20T15:23:31;0.80;;;0.60;;
28774;SDS011;15926;51.348;6.596;2023-07-20T15:25:57;0.93;;;0.82;;
28774;SDS011;15926;51.348;6.596;2023-07-20T15:28:23;2.38;;;0.80;;
28774;SDS011;15926;51.348;6.596;2023-07-20T15:30:49;3.60;;;0.68;;
28774;SDS011;15926;51.348;6.596;2023-07-20T15:33:17;0.80;;;0.77;;
28774;SDS011;15926;51.348;6.596;2023-07-20T15:35:43;1.00;;;0.82;;
28774;SDS011;15926;51.348;6.596;2023-07-20T15:38:09;0.75;;;0.70;;
28774;SDS011;15926;51.348;6.596;2023-07-20T15:40:35;1.95;;;0.65;;
28774;SDS011;15926;51.348;6.596;2023-07-20T15:43:01;0.50;;;0.50;;
28774;SDS011;15926;51.348;6.596;2023-07-20T15:45:27;0.73;;;0.63;;
28774;SDS011;15926;51.348;6.596;2023-07-20T15:47:55;0.57;;;0.57;;
28774;SDS011;15926;51.348;6.596;2023-07-20T15:50:21;0.73;;;0.50;;
28774;SDS011;15926;51.348;6.596;2023-07-20T15:52:47;0.88;;;0.60;;
28774;SDS011;15926;51.348;6.596;2023-07-20T15:55:13;0.77;;;0.75;;
28774;SDS011;15926;51.348;6.596;2023-07-20T15:57:39;0.60;;;0.60;;
28774;SDS011;15926;51.348;6.596;2023-07-20T16:00:06;1.27;;;0.68;;
28774;SDS011;15926;51.348;6.596;2023-07-20T16:02:34;0.55;;;0.55;;
28774;SDS011;15926;51.348;6.596;2023-07-20T16:05:00;0.60;;;0.60;;
28774;SDS011;15926;51.348;6.596;2023-07-20T16:07:26;0.60;;;0.60;;
28774;SDS011;15926;51.348;6.596;2023-07-20T16:09:52;2.25;;;0.65;;
28774;SDS011;15926;51.348;6.596;2023-07-20T16:12:18;0.43;;;0.40;;
28774;SDS011;15926;51.348;6.596;2023-07-20T16:14:51;0.50;;;0.50;;
28774;SDS011;15926;51.348;6.596;2023-07-20T16:17:17;0.65;;;0.55;;
28774;SDS011;15926;51.348;6.596;2023-07-20T16:19:43;0.50;;;0.50;;
28774;SDS011;15926;51.348;6.596;2023-07-20T16:22:09;2.00;;;0.80;;
28774;SDS011;15926;51.348;6.596;2023-07-20T16:24:36;0.63;;;0.50;;
28774;SDS011;15926;51.348;6.596;2023-07-20T16:27:03;1.40;;;0.57;;
28774;SDS011;15926;51.348;6.596;2023-07-20T16:29:30;1.58;;;0.82;;
28774;SDS011;15926;51.348;6.596;2023-07-20T16:31:56;1.10;;;0.55;;
28774;SDS011;15926;51.348;6.596;2023-07-20T16:34:22;1.98;;;0.60;;
28774;SDS011;15926;51.348;6.596;2023-07-20T16:36:48;0.70;;;0.65;;
28774;SDS011;15926;51.348;6.596;2023-07-20T16:39:14;2.88;;;0.73;;
28774;SDS011;15926;51.348;6.596;2023-07-20T16:41:40;0.50;;;0.47;;
28774;SDS011;15926;51.348;6.596;2023-07-20T16:44:07;1.65;;;0.50;;
28774;SDS011;15926;51.348;6.596;2023-07-20T16:46:33;0.40;;;0.40;;
28774;SDS011;15926;51.348;6.596;2023-07-20T16:48:59;0.85;;;0.65;;
28774;SDS011;15926;51.348;6.596;2023-07-20T16:51:34;1.35;;;0.60;;
28774;SDS011;15926;51.348;6.596;2023-07-20T16:54:00;0.57;;;0.50;;
28774;SDS011;15926;51.348;6.596;2023-07-20T16:56:28;1.95;;;0.40;;
28774;SDS011;15926;51.348;6.596;2023-07-20T16:58:54;0.73;;;0.73;;
28774;SDS011;15926;51.348;6.596;2023-07-20T17:01:20;1.63;;;0.50;;
28774;SDS011;15926;51.348;6.596;2023-07-20T17:03:47;1.00;;;0.50;;
28774;SDS011;15926;51.348;6.596;2023-07-20T17:06:14;2.17;;;0.88;;
28774;SDS011;15926;51.348;6.596;2023-07-20T17:08:40;0.98;;;0.57;;
28774;SDS011;15926;51.348;6.596;2023-07-20T17:11:06;0.50;;;0.50;;
28774;SDS011;15926;51.348;6.596;2023-07-20T17:13:33;0.50;;;0.50;;
28774;SDS011;15926;51.348;6.596;2023-07-20T17:15:59;1.40;;;0.47;;
28774;SDS011;15926;51.348;6.596;2023-07-20T17:18:25;1.67;;;0.70;;
28774;SDS011;15926;51.348;6.596;2023-07-20T17:20:51;0.82;;;0.60;;
28774;SDS011;15926;51.348;6.596;2023-07-20T17:23:17;0.77;;;0.60;;
28774;SDS011;15926;51.348;6.596;2023-07-20T17:25:46;0.60;;;0.60;;
28774;SDS011;15926;51.348;6.596;2023-07-20T17:28:13;1.83;;;0.63;;
28774;SDS011;15926;51.348;6.596;2023-07-20T17:30:39;1.17;;;0.55;;
28774;SDS011;15926;51.348;6.596;2023-07-20T17:33:05;1.55;;;0.60;;
28774;SDS011;15926;51.348;6.596;2023-07-20T17:35:33;0.50;;;0.50;;
28774;SDS011;15926;51.348;6.596;2023-07-20T17:37:59;2.05;;;0.50;;
28774;SDS011;15926;51.348;6.596;2023-07-20T17:40:26;1.25;;;0.50;;
28774;SDS011;15926;51.348;6.596;2023-07-20T17:42:52;0.80;;;0.50;;
28774;SDS011;15926;51.348;6.596;2023-07-20T17:45:18;0.50;;;0.50;;
28774;SDS011;15926;51.348;6.596;2023-07-20T17:47:44;0.60;;;0.60;;
28774;SDS011;15926;51.348;6.596;2023-07-20T17:50:10;0.65;;;0.65;;
28774;SDS011;15926;51.348;6.596;2023-07-20T17:52:36;1.13;;;0.60;;
28774;SDS011;15926;51.348;6.596;2023-07-20T17:55:02;1.98;;;0.63;;
28774;SDS011;15926;51.348;6.596;2023-07-20T17:57:28;1.38;;;0.52;;
28774;SDS011;15926;51.348;6.596;2023-07-20T17:59:56;0.70;;;0.70;;
28774;SDS011;15926;51.348;6.596;2023-07-20T18:02:23;1.77;;;0.73;;
28774;SDS011;15926;51.348;6.596;2023-07-20T18:04:50;1.50;;;0.90;;
28774;SDS011;15926;51.348;6.596;2023-07-20T18:07:16;13.65;;;3.10;;
28774;SDS011;15926;51.348;6.596;2023-07-20T18:09:52;4.57;;;1.10;;
28774;SDS011;15926;51.348;6.596;2023-07-20T18:12:18;8.88;;;2.22;;
28774;SDS011;15926;51.348;6.596;2023-07-20T18:14:44;4.20;;;0.90;;
28774;SDS011;15926;51.348;6.596;2023-07-20T18:17:13;11.02;;;2.10;;
28774;SDS011;15926;51.348;6.596;2023-07-20T18:19:39;18.63;;;3.70;;
28774;SDS011;15926;51.348;6.596;2023-07-20T18:22:05;22.95;;;4.80;;
28774;SDS011;15926;51.348;6.596;2023-07-20T18:24:31;20.88;;;4.68;;
28774;SDS011;15926;51.348;6.596;2023-07-20T18:26:59;26.83;;;5.43;;
28774;SDS011;15926;51.348;6.596;2023-07-20T18:29:25;3.80;;;1.35;;
28774;SDS011;15926;51.348;6.596;2023-07-20T18:31:51;5.70;;;1.40;;
28774;SDS011;15926;51.348;6.596;2023-07-20T18:34:17;4.05;;;1.20;;
28774;SDS011;15926;51.348;6.596;2023-07-20T18:36:44;2.50;;;1.40;;
28774;SDS011;15926;51.348;6.596;2023-07-20T18:39:12;0.75;;;0.60;;
28774;SDS011;15926;51.348;6.596;2023-07-20T18:41:38;2.17;;;0.75;;
28774;SDS011;15926;51.348;6.596;2023-07-20T18:44:04;3.95;;;0.90;;
28774;SDS011;15926;51.348;6.596;2023-07-20T18:46:30;1.10;;;0.90;;
28774;SDS011;15926;51.348;6.596;2023-07-20T18:48:56;1.70;;;0.80;;
28774;SDS011;15926;51.348;6.596;2023-07-20T18:51:23;0.82;;;0.70;;
28774;SDS011;15926;51.348;6.596;2023-07-20T18:53:49;4.32;;;0.93;;
28774;SDS011;15926;51.348;6.596;2023-07-20T18:56:18;4.65;;;0.77;;